Time;durP1;ratioP1;P1;durP2;ratioP2;P2;SDS_P1;SDS_P2;PMS_P1;PMS_P2;Temp;Humidity;BMP_temperature;BMP_pressure;BME280_temperature;BME280_humidity;BME280_pressure;Samples;Min_cycle;Max_cycle;Signal;HPM_P1;HPM_P2
2024/03/28 00:02:06;;;;;;;3.53;1.33;;;9.70;99.90;;;;;;7291167;19;20301;-81
2024/03/28 00:04:33;;;;;;;1.93;1.23;;;9.60;99.90;;;;;;7303323;19;20205;-83
2024/03/28 00:06:59;;;;;;;2.13;1.30;;;9.60;99.90;;;;;;7281773;19;20197;-82
2024/03/28 00:09:25;;;;;;;2.30;1.30;;;9.50;99.90;;;;;;7282244;19;21007;-82
2024/03/28 00:11:54;;;;;;;2.07;1.20;;;9.50;99.90;;;;;;7281391;19;20244;-82
2024/03/28 00:14:19;;;;;;;3.13;1.40;;;9.50;99.90;;;;;;7281031;19;20219;-82
2024/03/28 00:16:46;;;;;;;4.57;1.77;;;9.50;99.90;;;;;;7280009;19;20666;-81
2024/03/28 00:19:12;;;;;;;3.80;1.20;;;9.40;99.90;;;;;;7279441;19;20195;-82
2024/03/28 00:21:38;;;;;;;2.10;1.30;;;9.50;99.90;;;;;;7281669;19;20193;-82
2024/03/28 00:24:04;;;;;;;4.00;1.53;;;9.40;99.90;;;;;;7303402;19;20215;-82
2024/03/28 00:26:30;;;;;;;3.13;1.47;;;9.40;99.90;;;;;;7282942;19;20196;-83
2024/03/28 00:28:55;;;;;;;3.07;1.50;;;9.50;99.90;;;;;;7284458;19;20279;-82
2024/03/28 00:31:21;;;;;;;3.03;1.50;;;9.40;99.90;;;;;;7272659;19;298208;-83
2024/03/28 00:33:47;;;;;;;3.80;1.90;;;9.40;99.90;;;;;;7284530;19;20280;-83
2024/03/28 00:36:13;;;;;;;4.03;1.60;;;9.30;99.90;;;;;;7290001;19;20185;-82
2024/03/28 00:38:38;;;;;;;3.80;1.50;;;9.30;99.90;;;;;;7284995;19;20191;-82
2024/03/28 00:41:04;;;;;;;6.10;1.70;;;9.30;99.90;;;;;;7304749;19;20769;-83
2024/03/28 00:43:30;;;;;;;3.97;1.70;;;9.30;99.90;;;;;;7281621;19;20189;-82
2024/03/28 00:45:56;;;;;;;4.63;1.80;;;9.30;99.90;;;;;;7284092;19;20187;-82
2024/03/28 00:48:22;;;;;;;3.30;1.70;;;9.30;99.90;;;;;;7282526;19;20199;-82
2024/03/28 00:50:59;;;;;;;3.80;1.67;;;9.30;99.90;;;;;;7280450;19;20914;-82
2024/03/28 00:53:25;;;;;;;2.40;1.50;;;9.30;99.90;;;;;;7281184;19;20196;-82
2024/03/28 00:55:51;;;;;;;3.17;1.77;;;9.30;99.90;;;;;;7282992;19;20248;-82
2024/03/28 00:58:17;;;;;;;3.00;1.80;;;9.30;99.90;;;;;;7283960;19;20196;-81
2024/03/28 01:00:45;;;;;;;3.00;1.77;;;9.30;99.90;;;;;;7283693;19;20200;-82
2024/03/28 01:03:11;;;;;;;3.60;1.90;;;9.30;99.90;;;;;;7285989;19;20190;-82
2024/03/28 01:05:37;;;;;;;4.53;1.80;;;9.30;99.90;;;;;;7284444;19;20195;-81
2024/03/28 01:08:03;;;;;;;4.10;2.00;;;9.40;99.90;;;;;;7319795;19;20199;-81
2024/03/28 01:10:29;;;;;;;3.60;2.03;;;9.40;99.90;;;;;;7297904;19;20223;-81
2024/03/28 01:12:55;;;;;;;3.23;1.97;;;9.40;99.90;;;;;;7294969;19;20200;-82
2024/03/28 01:15:21;;;;;;;4.33;2.00;;;9.30;99.90;;;;;;7280958;19;20199;-82
2024/03/28 01:17:47;;;;;;;3.70;2.20;;;9.20;99.90;;;;;;7282089;19;20189;-82
2024/03/28 01:20:13;;;;;;;4.10;2.00;;;9.30;99.90;;;;;;7280716;19;20188;-82
2024/03/28 01:22:39;;;;;;;2.77;1.90;;;9.30;99.90;;;;;;7281901;19;20896;-82
2024/03/28 01:25:06;;;;;;;4.00;2.07;;;9.30;99.90;;;;;;7302871;19;20598;-79
2024/03/28 01:27:34;;;;;;;4.23;2.00;;;9.30;99.90;;;;;;7303234;19;20317;-82
2024/03/28 01:30:00;;;;;;;4.03;2.10;;;9.30;99.90;;;;;;7281372;19;20192;-82
2024/03/28 01:32:25;;;;;;;2.90;1.80;;;9.30;99.90;;;;;;7288143;19;20604;-83
2024/03/28 01:34:52;;;;;;;4.33;2.00;;;9.20;99.90;;;;;;7288600;19;20526;-83
2024/03/28 01:37:18;;;;;;;4.67;2.13;;;9.20;99.90;;;;;;7286764;19;20698;-83
2024/03/28 01:39:44;;;;;;;5.00;2.33;;;9.20;99.90;;;;;;7286800;19;20183;-83
2024/03/28 01:42:10;;;;;;;5.80;2.27;;;9.30;99.90;;;;;;7288031;19;20201;-83
2024/03/28 01:44:36;;;;;;;5.50;2.00;;;9.20;99.90;;;;;;7300068;19;20195;-81
2024/03/28 01:47:06;;;;;;;5.50;2.30;;;9.30;99.90;;;;;;7307722;19;20188;-81
2024/03/28 01:49:33;;;;;;;5.20;2.40;;;9.30;99.90;;;;;;7284697;19;20650;-82
2024/03/28 01:52:01;;;;;;;7.47;2.37;;;9.20;99.90;;;;;;7286179;19;20188;-81
2024/03/28 01:54:29;;;;;;;5.43;2.47;;;9.20;99.90;;;;;;7286620;19;20193;-82
2024/03/28 01:56:56;;;;;;;4.83;2.30;;;9.20;99.90;;;;;;7286344;19;20182;-82
2024/03/28 01:59:23;;;;;;;4.70;2.10;;;9.10;99.90;;;;;;7285418;19;20187;-83
2024/03/28 02:01:50;;;;;;;6.20;2.60;;;9.20;99.90;;;;;;7286708;19;20275;-82
2024/03/28 02:04:16;;;;;;;6.20;2.47;;;9.10;99.90;;;;;;7289834;19;20553;-82
2024/03/28 02:06:42;;;;;;;4.00;2.03;;;9.10;99.90;;;;;;7284172;19;20186;-81
2024/03/28 02:09:08;;;;;;;3.70;1.90;;;9.10;99.90;;;;;;7282914;19;20184;-80
2024/03/28 02:11:34;;;;;;;4.13;2.13;;;9.00;99.90;;;;;;7309420;19;20183;-82
2024/03/28 02:14:03;;;;;;;4.60;2.27;;;8.90;99.90;;;;;;7289136;19;20194;-81
2024/03/28 02:16:40;;;;;;;3.90;1.90;;;8.90;99.90;;;;;;7285038;19;20206;-82
2024/03/28 02:19:06;;;;;;;5.63;1.87;;;8.80;99.90;;;;;;7280656;19;20289;-81
2024/03/28 02:21:31;;;;;;;4.83;2.10;;;8.80;99.90;;;;;;7302066;19;20579;-82
2024/03/28 02:23:57;;;;;;;4.40;2.17;;;8.70;99.90;;;;;;7287139;19;20192;-82
2024/03/28 02:26:24;;;;;;;3.73;1.90;;;8.70;99.90;;;;;;7285801;19;20187;-82
2024/03/28 02:28:51;;;;;;;6.20;2.10;;;8.70;99.90;;;;;;7287032;19;20192;-82
2024/03/28 02:31:17;;;;;;;4.90;2.20;;;8.70;99.90;;;;;;7286320;19;20203;-82
2024/03/28 02:33:43;;;;;;;5.00;2.10;;;8.70;99.90;;;;;;7285601;19;20274;-82
2024/03/28 02:36:08;;;;;;;6.27;2.20;;;8.60;99.90;;;;;;7283825;19;20645;-81
2024/03/28 02:38:34;;;;;;;7.20;2.40;;;8.60;99.90;;;;;;7307081;19;20220;-82
2024/03/28 02:41:01;;;;;;;5.53;2.10;;;8.50;99.90;;;;;;7285284;19;20183;-82
2024/03/28 02:43:29;;;;;;;4.57;2.00;;;8.50;99.90;;;;;;7285388;19;20178;-82
2024/03/28 02:45:54;;;;;;;5.73;2.10;;;8.60;99.90;;;;;;7287332;19;20185;-82
2024/03/28 02:48:20;;;;;;;4.33;1.93;;;8.50;99.90;;;;;;7292605;19;20264;-83
2024/03/28 02:50:46;;;;;;;4.27;2.10;;;8.50;99.90;;;;;;7286280;19;20190;-82
2024/03/28 02:53:12;;;;;;;4.63;2.30;;;8.50;99.90;;;;;;7283261;19;20282;-82
2024/03/28 02:55:38;;;;;;;5.17;2.13;;;8.40;99.90;;;;;;7285767;19;20191;-81
2024/03/28 02:58:04;;;;;;;4.67;2.20;;;8.30;99.90;;;;;;7307001;19;20577;-81
2024/03/28 03:00:30;;;;;;;5.13;2.10;;;8.30;99.90;;;;;;7285853;19;20181;-81
2024/03/28 03:02:56;;;;;;;5.80;2.43;;;8.40;99.90;;;;;;7285142;19;20208;-82
2024/03/28 03:05:21;;;;;;;6.70;2.10;;;8.40;99.90;;;;;;7283331;19;20663;-81
2024/03/28 03:07:48;;;;;;;3.17;2.00;;;8.30;99.90;;;;;;7286499;19;20192;-81
2024/03/28 03:10:14;;;;;;;3.47;2.10;;;8.30;99.90;;;;;;7284446;19;20279;-81
2024/03/28 03:12:40;;;;;;;3.73;2.20;;;8.20;99.90;;;;;;7282504;19;20194;-81
2024/03/28 03:15:06;;;;;;;6.70;2.30;;;8.20;99.90;;;;;;7302394;19;20621;-80
2024/03/28 03:17:32;;;;;;;5.50;2.27;;;8.20;99.90;;;;;;7299731;19;20192;-81
2024/03/28 03:19:59;;;;;;;3.70;1.97;;;8.20;99.90;;;;;;7283732;19;20540;-81
2024/03/28 03:22:26;;;;;;;4.93;2.10;;;8.30;99.90;;;;;;7284085;19;20198;-82
2024/03/28 03:24:58;;;;;;;4.57;2.10;;;8.30;99.90;;;;;;7283768;19;20198;-81
2024/03/28 03:27:32;;;;;;;3.90;1.83;;;8.30;99.90;;;;;;7286005;19;20646;-81
2024/03/28 03:35:30;;;;;;;3.03;1.90;;;8.30;99.90;;;;;;7286046;19;20198;-82
2024/03/28 03:37:56;;;;;;;3.30;1.77;;;8.30;99.90;;;;;;7283922;19;20203;-82
2024/03/28 03:40:23;;;;;;;5.27;2.20;;;8.30;99.90;;;;;;7283297;19;20658;-82
2024/03/28 03:42:49;;;;;;;4.30;1.67;;;8.30;99.90;;;;;;7284875;19;20191;-82
2024/03/28 03:45:15;;;;;;;6.20;1.90;;;8.30;99.90;;;;;;7285708;19;20201;-82
2024/03/28 03:47:41;;;;;;;3.20;1.87;;;8.30;99.90;;;;;;7284080;19;21235;-81
2024/03/28 03:50:08;;;;;;;3.83;1.90;;;8.30;99.90;;;;;;7285377;19;20194;-81
2024/03/28 03:52:33;;;;;;;3.97;1.90;;;8.30;99.90;;;;;;7305628;19;20646;-82
2024/03/28 03:54:59;;;;;;;4.87;2.30;;;8.30;99.90;;;;;;7284742;19;20211;-83
2024/03/28 03:57:25;;;;;;;3.37;1.87;;;8.30;99.90;;;;;;7284296;19;20198;-82
2024/03/28 03:59:51;;;;;;;3.93;2.10;;;8.30;99.90;;;;;;7283070;19;20228;-82
2024/03/28 04:02:17;;;;;;;4.73;1.97;;;8.30;99.90;;;;;;7285341;19;20193;-82
2024/03/28 04:04:43;;;;;;;4.87;2.07;;;8.40;99.90;;;;;;7286124;19;20710;-83
2024/03/28 04:07:08;;;;;;;4.27;1.87;;;8.50;99.90;;;;;;7284050;19;20196;-81
2024/03/28 04:09:34;;;;;;;3.00;1.73;;;8.50;99.90;;;;;;7305565;19;20187;-82
2024/03/28 04:12:00;;;;;;;4.80;2.30;;;8.60;99.90;;;;;;7285015;19;20195;-82
2024/03/28 04:14:26;;;;;;;6.13;2.30;;;8.60;99.90;;;;;;7284531;19;20199;-82
2024/03/28 04:16:51;;;;;;;6.33;1.87;;;8.60;99.90;;;;;;7284812;19;20720;-82
2024/03/28 04:19:17;;;;;;;4.00;1.90;;;8.70;99.90;;;;;;7284290;19;20208;-82
2024/03/28 04:21:43;;;;;;;6.93;2.20;;;8.80;99.90;;;;;;7284968;19;20192;-81
2024/03/28 04:24:08;;;;;;;3.60;1.70;;;8.90;99.90;;;;;;7288769;19;20187;-81
2024/03/28 04:26:34;;;;;;;4.33;1.90;;;9.00;99.90;;;;;;7313509;19;20196;-81
2024/03/28 04:29:00;;;;;;;3.73;1.70;;;9.10;99.90;;;;;;7292845;19;20198;-81
2024/03/28 04:31:26;;;;;;;3.97;1.97;;;9.10;99.90;;;;;;7281972;19;20209;-82
2024/03/28 04:33:52;;;;;;;6.77;2.27;;;9.20;99.90;;;;;;7283174;19;20188;-81
2024/03/28 04:36:18;;;;;;;4.43;1.90;;;9.40;99.90;;;;;;7281359;19;20274;-82
2024/03/28 04:38:45;;;;;;;4.47;1.80;;;9.50;99.90;;;;;;7282368;19;20207;-81
2024/03/28 04:41:13;;;;;;;3.40;1.60;;;9.50;99.90;;;;;;7281841;19;20195;-82
2024/03/28 04:43:40;;;;;;;5.60;1.87;;;9.50;99.90;;;;;;7281691;19;20199;-81
2024/03/28 04:46:06;;;;;;;4.43;1.93;;;9.60;99.90;;;;;;7301002;19;20198;-79
2024/03/28 04:48:32;;;;;;;4.03;1.80;;;9.50;99.90;;;;;;7297412;19;20679;-82
2024/03/28 04:50:58;;;;;;;3.53;1.87;;;9.20;99.90;;;;;;7283985;19;20285;-82
2024/03/28 04:53:24;;;;;;;3.70;1.63;;;9.10;99.90;;;;;;7281916;19;20193;-82
2024/03/28 04:55:50;;;;;;;4.70;1.90;;;8.90;99.90;;;;;;7280458;19;20190;-81
2024/03/28 04:58:16;;;;;;;3.90;1.63;;;8.90;99.90;;;;;;7281971;19;20191;-82
2024/03/28 05:00:42;;;;;;;1.60;1.20;;;8.80;99.90;;;;;;7285499;19;20203;-81
2024/03/28 05:03:08;;;;;;;1.63;1.17;;;8.70;99.90;;;;;;7277441;19;20195;-81
2024/03/28 05:05:34;;;;;;;3.27;1.50;;;8.60;99.90;;;;;;7308509;19;20188;-82
2024/03/28 05:08:02;;;;;;;4.23;1.50;;;8.70;99.90;;;;;;7289500;19;20199;-83
2024/03/28 05:10:28;;;;;;;4.57;1.47;;;8.50;99.90;;;;;;7288097;19;20201;-83
2024/03/28 05:12:53;;;;;;;3.37;1.60;;;8.30;99.90;;;;;;7287603;19;20196;-83
2024/03/28 05:15:19;;;;;;;2.87;1.60;;;8.20;99.90;;;;;;7294341;19;20539;-83
2024/03/28 05:17:45;;;;;;;2.83;1.27;;;8.10;99.90;;;;;;7289284;19;20556;-82
2024/03/28 05:20:13;;;;;;;2.77;1.57;;;8.10;99.90;;;;;;7289474;19;20182;-83
2024/03/28 05:22:39;;;;;;;4.33;1.50;;;8.00;99.90;;;;;;7287516;19;20181;-82
2024/03/28 05:25:06;;;;;;;4.70;1.50;;;8.10;99.90;;;;;;7309928;19;20973;-83
2024/03/28 05:27:34;;;;;;;3.00;1.27;;;8.00;99.90;;;;;;7290458;19;20190;-83
2024/03/28 05:30:01;;;;;;;3.23;1.40;;;7.90;99.90;;;;;;7286168;19;20199;-84
2024/03/28 05:32:28;;;;;;;2.27;1.10;;;7.90;99.90;;;;;;7287904;19;20193;-83
2024/03/28 05:34:54;;;;;;;3.07;1.50;;;7.80;99.90;;;;;;7289626;19;20194;-83
2024/03/28 05:37:20;;;;;;;3.83;1.50;;;7.90;99.90;;;;;;7288558;19;20182;-83
2024/03/28 05:39:45;;;;;;;3.93;1.40;;;8.00;99.90;;;;;;7285685;19;20193;-83
2024/03/28 05:42:11;;;;;;;3.30;1.30;;;8.10;99.90;;;;;;7287427;19;20242;-83
2024/03/28 05:44:37;;;;;;;3.63;1.60;;;8.20;99.90;;;;;;7297075;19;20644;-82
2024/03/28 05:47:03;;;;;;;5.77;1.40;;;8.20;99.90;;;;;;7311714;19;20201;-83
2024/03/28 05:49:28;;;;;;;4.77;1.47;;;8.20;99.90;;;;;;7285785;19;20936;-82
2024/03/28 05:51:54;;;;;;;6.33;1.67;;;8.20;99.90;;;;;;7286752;19;20184;-83
2024/03/28 05:54:21;;;;;;;5.03;1.90;;;8.10;99.90;;;;;;7284449;19;20569;-83
2024/03/28 05:56:47;;;;;;;4.90;1.50;;;8.20;99.90;;;;;;7287915;19;20541;-83
2024/03/28 05:59:13;;;;;;;4.50;1.70;;;8.10;99.90;;;;;;7284136;19;20191;-83
2024/03/28 06:01:38;;;;;;;3.87;1.60;;;8.10;99.90;;;;;;7288866;19;20202;-80
2024/03/28 06:04:04;;;;;;;4.70;1.90;;;8.20;99.90;;;;;;7309812;19;20191;-82
2024/03/28 06:06:30;;;;;;;3.03;1.60;;;8.20;99.90;;;;;;7286657;19;20233;-83
2024/03/28 06:08:55;;;;;;;5.00;1.97;;;8.20;99.90;;;;;;7286054;19;21244;-83
2024/03/28 06:11:21;;;;;;;3.63;1.50;;;8.20;99.90;;;;;;7285049;19;20211;-84
2024/03/28 06:13:54;;;;;;;3.97;1.57;;;8.30;99.90;;;;;;7286440;19;20181;-81
2024/03/28 06:16:19;;;;;;;4.63;1.90;;;8.30;99.90;;;;;;7284961;19;20785;-84
2024/03/28 06:18:45;;;;;;;5.73;1.80;;;8.40;99.90;;;;;;7283536;19;20186;-80
2024/03/28 06:21:11;;;;;;;6.27;2.20;;;8.30;99.90;;;;;;7285331;19;20178;-83
2024/03/28 06:23:37;;;;;;;5.80;2.30;;;8.30;99.90;;;;;;7299749;19;20235;-85
2024/03/28 06:26:03;;;;;;;6.20;2.40;;;8.40;99.90;;;;;;7304342;19;20191;-83
2024/03/28 06:28:30;;;;;;;6.70;3.13;;;8.50;99.90;;;;;;7287954;19;20185;-83
2024/03/28 06:30:59;;;;;;;7.83;2.63;;;8.60;99.90;;;;;;7282929;19;21804;-82
2024/03/28 06:33:28;;;;;;;4.60;2.10;;;8.70;99.90;;;;;;7286740;19;20204;-82
2024/03/28 06:35:53;;;;;;;7.27;2.90;;;8.70;99.90;;;;;;7285777;19;20201;-84
2024/03/28 06:41:48;;;;;;;6.23;2.70;;;8.70;99.90;;;;;;7398847;19;20158;-81
2024/03/28 06:44:14;;;;;;;8.30;2.80;;;8.80;99.90;;;;;;7283251;19;20183;-82
2024/03/28 06:46:39;;;;;;;5.97;2.93;;;8.90;99.90;;;;;;7280810;19;20192;-82
2024/03/28 06:49:06;;;;;;;6.43;2.70;;;9.00;99.90;;;;;;7304138;19;20576;-82
2024/03/28 06:51:32;;;;;;;5.00;2.20;;;9.00;99.90;;;;;;7285719;19;20693;-80
2024/03/28 06:53:58;;;;;;;5.73;2.17;;;9.00;99.90;;;;;;7284063;19;20298;-79
2024/03/28 06:56:24;;;;;;;4.33;2.30;;;9.00;99.90;;;;;;7285168;19;20192;-79
2024/03/28 06:58:51;;;;;;;4.67;2.10;;;9.10;99.90;;;;;;7284482;19;21005;-79
2024/03/28 07:01:16;;;;;;;5.83;2.40;;;9.10;99.90;;;;;;7285118;19;20188;-79
2024/03/28 07:03:42;;;;;;;6.80;2.63;;;9.10;99.90;;;;;;7282873;19;20204;-79
2024/03/28 07:06:10;;;;;;;5.90;2.67;;;9.20;99.90;;;;;;7285209;19;20244;-79
2024/03/28 07:08:35;;;;;;;5.77;2.50;;;9.20;99.90;;;;;;7307079;19;20180;-80
2024/03/28 07:11:02;;;;;;;8.27;3.90;;;9.30;99.90;;;;;;7287831;19;20297;-79
2024/03/28 07:13:27;;;;;;;6.53;3.00;;;9.20;99.90;;;;;;7287439;19;20188;-80
2024/03/28 07:15:53;;;;;;;6.97;2.73;;;9.40;99.90;;;;;;7287811;19;20293;-80
2024/03/28 07:18:19;;;;;;;6.23;2.77;;;9.40;99.90;;;;;;7288258;19;20199;-79
2024/03/28 07:20:45;;;;;;;8.50;2.87;;;9.30;99.90;;;;;;7285271;19;20196;-80
2024/03/28 07:23:10;;;;;;;5.63;2.60;;;9.40;99.90;;;;;;7294134;19;20201;-79
2024/03/28 07:25:36;;;;;;;5.80;2.63;;;9.50;99.90;;;;;;7318358;19;20196;-78
2024/03/28 07:28:02;;;;;;;6.00;3.27;;;9.40;99.90;;;;;;7306900;19;20184;-79
2024/03/28 07:30:28;;;;;;;5.43;3.00;;;9.40;99.90;;;;;;7298153;19;20184;-79
2024/03/28 07:32:53;;;;;;;6.20;2.77;;;9.40;99.90;;;;;;7282218;19;20888;-79
2024/03/28 07:35:19;;;;;;;5.33;2.43;;;9.40;99.90;;;;;;7284859;19;20648;-80
2024/03/28 07:37:45;;;;;;;4.27;2.30;;;9.30;99.90;;;;;;7282759;19;20671;-79
2024/03/28 07:40:11;;;;;;;3.30;2.07;;;9.40;99.90;;;;;;7282994;19;20740;-79
2024/03/28 07:42:36;;;;;;;5.53;1.80;;;9.50;99.90;;;;;;7301287;19;20185;-79
2024/03/28 07:45:03;;;;;;;4.40;1.87;;;9.30;99.90;;;;;;7298238;19;20746;-79
2024/03/28 07:47:29;;;;;;;3.07;1.67;;;9.20;99.90;;;;;;7284291;19;20300;-79
2024/03/28 07:49:55;;;;;;;4.27;1.67;;;9.30;99.90;;;;;;7283737;19;20199;-79
2024/03/28 07:52:21;;;;;;;2.37;1.50;;;9.30;99.90;;;;;;7282506;19;20187;-79
2024/03/28 07:54:47;;;;;;;3.20;1.60;;;9.40;99.90;;;;;;7283971;19;20196;-80
2024/03/28 07:57:13;;;;;;;5.90;1.53;;;9.50;99.90;;;;;;7283538;19;20601;-79
2024/03/28 07:59:39;;;;;;;5.10;1.50;;;9.60;99.90;;;;;;7281192;19;21014;-79
2024/03/28 08:02:05;;;;;;;3.03;1.50;;;9.80;99.90;;;;;;7304009;19;20264;-79
2024/03/28 08:04:31;;;;;;;3.13;1.50;;;9.80;99.90;;;;;;7284271;19;20203;-79
2024/03/28 08:06:58;;;;;;;3.47;1.53;;;10.10;99.90;;;;;;7284635;19;20204;-79
2024/03/28 08:09:23;;;;;;;3.63;1.67;;;10.30;99.90;;;;;;7283524;19;20605;-79
2024/03/28 08:11:49;;;;;;;3.07;1.33;;;10.50;99.90;;;;;;7282071;19;20192;-79
2024/03/28 08:14:16;;;;;;;3.27;1.27;;;10.70;99.90;;;;;;7283795;19;20206;-79
2024/03/28 08:16:42;;;;;;;4.03;1.20;;;10.70;99.90;;;;;;7282049;19;20189;-79
2024/03/28 08:19:08;;;;;;;4.87;1.40;;;10.70;99.90;;;;;;7289898;19;20221;-80
2024/03/28 08:21:34;;;;;;;3.30;1.50;;;10.80;99.90;;;;;;7305325;19;20629;-79
2024/03/28 08:23:59;;;;;;;2.30;1.47;;;11.00;99.90;;;;;;7283473;19;20197;-80
2024/03/28 08:26:25;;;;;;;3.70;1.17;;;11.40;99.90;;;;;;7283346;19;20189;-80
2024/03/28 08:28:51;;;;;;;2.70;1.10;;;12.00;99.90;;;;;;7281106;19;20199;-80
2024/03/28 08:31:16;;;;;;;2.07;0.90;;;13.20;99.90;;;;;;7282198;19;20205;-79
2024/03/28 08:33:43;;;;;;;2.70;0.90;;;15.30;99.90;;;;;;7283633;19;20234;-80
2024/03/28 08:36:12;;;;;;;2.43;0.80;;;16.60;99.90;;;;;;7280129;19;20189;-79
2024/03/28 08:38:38;;;;;;;1.57;0.60;;;17.40;99.90;;;;;;7281779;19;20355;-79
2024/03/28 08:41:04;;;;;;;2.77;0.60;;;19.50;99.90;;;;;;7310691;19;20252;-79
2024/03/28 08:43:30;;;;;;;2.20;0.70;;;20.20;99.90;;;;;;7288367;19;20215;-79
2024/03/28 08:45:56;;;;;;;3.10;0.70;;;20.20;99.90;;;;;;7287219;19;20269;-80
2024/03/28 08:48:21;;;;;;;2.50;0.70;;;21.60;99.90;;;;;;7288842;19;20192;-79
2024/03/28 08:50:47;;;;;;;3.07;0.70;;;20.60;99.90;;;;;;7287594;19;20206;-79
2024/03/28 08:53:13;;;;;;;3.60;0.70;;;20.50;99.90;;;;;;7289481;19;20189;-79
2024/03/28 08:55:39;;;;;;;1.30;0.60;;;21.10;99.90;;;;;;7287579;19;20278;-79
2024/03/28 08:58:05;;;;;;;3.43;0.80;;;20.30;99.90;;;;;;7309353;19;20192;-79
2024/03/28 09:00:32;;;;;;;1.53;0.57;;;19.60;99.90;;;;;;7288959;19;20189;-79
2024/03/28 09:02:58;;;;;;;2.50;0.53;;;20.40;99.90;;;;;;7289433;19;20960;-79
2024/03/28 09:05:24;;;;;;;1.87;0.50;;;20.50;99.90;;;;;;7286318;19;20252;-79
2024/03/28 09:07:50;;;;;;;3.50;0.80;;;18.90;99.90;;;;;;7287878;19;20193;-79
2024/03/28 09:10:16;;;;;;;2.73;0.80;;;17.80;99.90;;;;;;7288249;19;20189;-79
2024/03/28 09:12:43;;;;;;;3.27;1.00;;;16.90;99.90;;;;;;7287216;19;20223;-79
2024/03/28 09:15:09;;;;;;;3.40;0.90;;;17.00;99.90;;;;;;7287059;19;21018;-79
2024/03/28 09:17:35;;;;;;;4.07;0.90;;;16.00;99.90;;;;;;7311132;19;20198;-79
2024/03/28 09:20:05;;;;;;;3.97;0.97;;;15.30;99.90;;;;;;7287663;19;20698;-79
2024/03/28 09:22:33;;;;;;;3.20;0.70;;;14.90;99.90;;;;;;7287690;19;20570;-79
2024/03/28 09:25:04;;;;;;;2.63;0.60;;;14.10;99.90;;;;;;7285642;19;20192;-79
2024/03/28 09:27:30;;;;;;;4.80;0.70;;;14.00;99.90;;;;;;7288126;19;20214;-79
2024/03/28 09:29:56;;;;;;;1.67;0.70;;;14.10;99.90;;;;;;7288406;19;20643;-79
2024/03/28 09:32:23;;;;;;;4.43;0.73;;;14.30;99.90;;;;;;7287555;19;20200;-79
2024/03/28 09:34:49;;;;;;;3.27;0.70;;;14.60;99.90;;;;;;7286872;19;20193;-79
2024/03/28 09:37:15;;;;;;;3.47;0.70;;;14.60;99.90;;;;;;7287239;19;21010;-79
2024/03/28 09:39:44;;;;;;;5.67;0.70;;;14.50;99.90;;;;;;7288980;19;20197;-79
2024/03/28 09:42:16;;;;;;;3.27;0.60;;;14.20;99.90;;;;;;7287599;19;20196;-79
2024/03/28 09:44:42;;;;;;;5.03;0.70;;;13.90;99.90;;;;;;7282326;19;20196;-78
2024/03/28 09:47:10;;;;;;;3.33;0.60;;;13.80;99.90;;;;;;7299420;19;20199;-79
2024/03/28 09:49:37;;;;;;;3.53;0.60;;;13.70;99.90;;;;;;7308442;19;20290;-79
2024/03/28 09:52:07;;;;;;;4.33;0.70;;;13.80;99.90;;;;;;7287363;19;20192;-79
2024/03/28 09:54:35;;;;;;;1.90;0.40;;;13.90;99.90;;;;;;7286936;19;20223;-79
2024/03/28 09:57:01;;;;;;;5.80;0.57;;;13.20;99.90;;;;;;7286316;19;20628;-78
2024/03/28 09:59:28;;;;;;;4.33;0.60;;;13.70;99.90;;;;;;7286493;19;20257;-79
2024/03/28 10:01:59;;;;;;;4.83;0.50;;;14.10;99.90;;;;;;7285556;19;20202;-79
2024/03/28 10:04:28;;;;;;;3.50;0.40;;;15.20;99.90;;;;;;7288148;19;20525;-79
2024/03/28 10:06:55;;;;;;;2.70;0.50;;;16.30;99.90;;;;;;7291017;19;20197;-80
2024/03/28 10:09:24;;;;;;;2.13;0.40;;;15.60;99.90;;;;;;7287091;19;20279;-79
2024/03/28 10:11:51;;;;;;;2.83;0.50;;;15.10;99.90;;;;;;7285309;19;20223;-79
2024/03/28 10:14:29;;;;;;;4.33;0.60;;;15.00;99.90;;;;;;7287079;19;20326;-79
2024/03/28 10:17:03;;;;;;;2.60;0.30;;;14.80;99.90;;;;;;7286872;19;20225;-79
2024/03/28 10:19:30;;;;;;;4.13;0.50;;;15.30;99.90;;;;;;7285147;19;20186;-79
2024/03/28 10:22:12;;;;;;;2.03;0.40;;;17.50;99.90;;;;;;7286095;19;20696;-80
2024/03/28 10:24:38;;;;;;;3.37;0.30;;;20.40;99.90;;;;;;7278195;19;20202;-80
2024/03/28 10:27:20;;;;;;;4.27;0.50;;;20.60;99.90;;;;;;7328755;19;20660;-79
2024/03/28 10:29:53;;;;;;;2.57;0.43;;;20.60;99.40;;;;;;7182343;19;2004563;-79
2024/03/28 10:32:19;;;;;;;0.90;0.33;;;20.00;99.90;;;;;;7287409;19;20189;-80
2024/03/28 10:34:46;;;;;;;3.13;0.50;;;20.40;98.40;;;;;;7285755;19;20190;-79
2024/03/28 10:37:12;;;;;;;3.33;0.77;;;20.10;97.70;;;;;;7285884;19;20652;-79
2024/03/28 10:39:38;;;;;;;2.00;0.43;;;20.50;99.70;;;;;;7291668;19;20209;-78
2024/03/28 10:42:07;;;;;;;4.60;0.40;;;20.70;97.40;;;;;;7308010;19;20188;-79
2024/03/28 10:44:34;;;;;;;2.70;0.40;;;19.00;99.00;;;;;;7286489;19;20192;-79
2024/03/28 10:47:01;;;;;;;4.37;0.47;;;17.90;99.90;;;;;;7286132;19;20182;-79
2024/03/28 10:49:37;;;;;;;4.50;1.17;;;17.40;99.90;;;;;;7284533;19;20190;-79
2024/03/28 10:52:07;;;;;;;4.57;0.63;;;17.80;99.90;;;;;;7287437;19;20184;-79
2024/03/28 10:54:43;;;;;;;4.67;0.60;;;17.50;99.90;;;;;;7286622;19;20228;-79
2024/03/28 10:57:09;;;;;;;3.13;0.50;;;17.90;99.90;;;;;;7267672;19;20199;-79
2024/03/28 10:59:39;;;;;;;1.47;0.50;;;19.00;99.90;;;;;;7306892;19;20972;-79
2024/03/28 11:02:05;;;;;;;3.53;0.60;;;19.40;98.10;;;;;;7283356;19;20192;-79
2024/03/28 11:04:34;;;;;;;5.43;0.60;;;18.40;97.50;;;;;;7286619;19;20185;-79
2024/03/28 11:07:01;;;;;;;3.20;0.60;;;18.00;97.80;;;;;;7283535;19;20196;-79
2024/03/28 11:09:28;;;;;;;4.17;0.47;;;17.40;99.20;;;;;;7284271;19;20192;-78
2024/03/28 11:11:57;;;;;;;3.63;0.67;;;17.20;99.50;;;;;;7285225;19;20591;-78
2024/03/28 11:14:23;;;;;;;3.13;0.80;;;17.40;99.90;;;;;;7284113;19;20200;-78
2024/03/28 11:16:49;;;;;;;3.07;0.60;;;17.90;99.90;;;;;;7282744;19;20196;-78
2024/03/28 11:19:18;;;;;;;2.80;0.80;;;18.40;98.80;;;;;;7282476;19;20188;-79
2024/03/28 11:21:51;;;;;;;5.17;0.80;;;17.20;99.50;;;;;;7284434;19;20281;-78
2024/03/28 11:24:19;;;;;;;4.47;0.80;;;16.10;99.90;;;;;;7281354;19;20189;-78
2024/03/28 11:26:56;;;;;;;5.13;0.90;;;15.60;99.90;;;;;;7283188;19;20187;-79
2024/03/28 11:29:26;;;;;;;4.23;0.90;;;15.40;99.90;;;;;;7284353;19;20532;-79
2024/03/28 11:31:59;;;;;;;4.03;1.00;;;15.30;99.90;;;;;;7283222;19;20207;-79
2024/03/28 11:34:28;;;;;;;3.40;0.57;;;15.70;99.90;;;;;;7283348;19;20200;-79
2024/03/28 11:36:57;;;;;;;4.47;0.67;;;16.00;99.90;;;;;;7282925;19;20604;-79
2024/03/28 11:39:25;;;;;;;2.50;0.77;;;16.30;99.90;;;;;;7283578;19;20205;-80
2024/03/28 11:41:51;;;;;;;2.80;0.83;;;16.40;99.90;;;;;;7285016;19;20196;-82
2024/03/28 11:44:21;;;;;;;2.13;0.50;;;16.40;99.90;;;;;;7282552;19;20191;-82
2024/03/28 11:46:46;;;;;;;2.47;0.50;;;16.40;99.90;;;;;;7282913;19;20203;-81
2024/03/28 11:49:21;;;;;;;2.20;0.60;;;16.30;99.90;;;;;;7284318;19;20187;-81
2024/03/28 11:51:47;;;;;;;1.47;0.50;;;16.20;99.90;;;;;;7283203;19;20270;-82
2024/03/28 11:54:17;;;;;;;3.30;0.50;;;16.70;99.90;;;;;;7280404;19;20181;-82
2024/03/28 11:56:44;;;;;;;3.63;0.77;;;17.80;99.90;;;;;;7284125;19;20275;-80
2024/03/28 11:59:22;;;;;;;2.13;0.50;;;17.90;98.80;;;;;;7282473;19;20207;-78
2024/03/28 12:01:48;;;;;;;2.50;0.60;;;17.50;99.90;;;;;;7281696;19;20287;-78
2024/03/28 12:04:27;;;;;;;4.17;0.70;;;17.00;99.10;;;;;;7283841;19;20638;-78
2024/03/28 12:06:57;;;;;;;2.90;0.90;;;17.20;99.80;;;;;;7282825;19;20192;-78
2024/03/28 12:09:25;;;;;;;3.67;0.80;;;16.70;99.80;;;;;;7284929;19;20189;-78
2024/03/28 12:11:55;;;;;;;3.03;0.70;;;16.90;99.90;;;;;;7281321;19;20188;-78
2024/03/28 12:14:21;;;;;;;4.17;0.90;;;17.30;99.90;;;;;;7281725;19;20201;-78
2024/03/28 12:16:47;;;;;;;4.43;1.00;;;17.10;98.90;;;;;;7283315;19;20271;-79
2024/03/28 12:19:23;;;;;;;4.53;1.00;;;16.30;99.90;;;;;;7282587;19;20381;-78
2024/03/28 12:21:50;;;;;;;5.90;1.10;;;15.80;99.90;;;;;;7283476;19;20185;-79
2024/03/28 12:24:19;;;;;;;5.27;1.50;;;15.70;99.90;;;;;;7282509;19;20195;-78
2024/03/28 12:26:45;;;;;;;8.07;1.27;;;16.10;99.90;;;;;;7281314;19;20204;-79
2024/03/28 12:29:11;;;;;;;4.47;1.20;;;16.30;99.90;;;;;;7282248;19;20197;-78
2024/03/28 12:31:37;;;;;;;5.83;1.00;;;16.10;99.90;;;;;;7300185;19;20188;-78
2024/03/28 12:34:10;;;;;;;6.03;1.03;;;16.00;99.90;;;;;;7292405;19;20188;-79
2024/03/28 12:36:38;;;;;;;6.87;1.70;;;16.00;99.90;;;;;;7282524;19;20215;-79
2024/03/28 12:39:04;;;;;;;5.00;1.33;;;16.20;99.90;;;;;;7279475;19;20182;-79
2024/03/28 12:41:30;;;;;;;4.93;0.97;;;16.50;99.90;;;;;;7278983;19;20196;-78
2024/03/28 12:44:00;;;;;;;4.50;1.23;;;16.60;99.90;;;;;;7281083;19;21955;-80
2024/03/28 12:46:27;;;;;;;4.93;0.80;;;16.60;99.90;;;;;;7281612;19;20661;-81
2024/03/28 12:48:52;;;;;;;5.07;0.80;;;16.00;99.90;;;;;;7279642;19;20197;-80
2024/03/28 12:51:19;;;;;;;3.43;0.80;;;15.60;99.90;;;;;;7280921;19;20198;-79
2024/03/28 12:53:45;;;;;;;5.53;0.50;;;15.30;99.90;;;;;;7282602;19;20220;-79
2024/03/28 12:56:11;;;;;;;4.93;0.60;;;15.10;99.90;;;;;;7282260;19;20184;-79
2024/03/28 12:58:37;;;;;;;4.40;0.73;;;15.00;99.90;;;;;;7302586;19;20224;-79
2024/03/28 13:01:03;;;;;;;2.37;0.60;;;14.90;99.90;;;;;;7281272;19;20193;-79